createdAt,value
2022-12-13T00:01:46.545Z,0.73
2022-12-13T00:04:13.857Z,0.71
2022-12-13T00:06:40.458Z,0.62
2022-12-13T00:09:07.309Z,0.56
2022-12-13T00:11:34.324Z,0.72
2022-12-13T00:14:01.981Z,0.71
2022-12-13T00:16:28.747Z,0.71
2022-12-13T00:18:58.160Z,0.82
2022-12-13T00:21:31.193Z,0.97
2022-12-13T00:23:58.398Z,1.15
2022-12-13T00:26:27.934Z,1.09
2022-12-13T00:28:54.893Z,0.95
2022-12-13T00:34:10.542Z,0.78
2022-12-13T00:36:37.178Z,0.84
2022-12-13T00:39:03.713Z,0.99
2022-12-13T00:41:35.954Z,1.03
2022-12-13T00:44:03.431Z,1.10
2022-12-13T00:46:30.406Z,1.22
2022-12-13T00:49:00.123Z,1.02
2022-12-13T00:51:29.690Z,1.07
2022-12-13T00:53:56.989Z,0.94
2022-12-13T00:56:25.862Z,1.12
2022-12-13T00:58:53.612Z,1.29
2022-12-13T02:02:16.313Z,0.91
2022-12-13T02:04:51.019Z,1.00
2022-12-13T02:07:23.116Z,0.92
2022-12-13T02:09:56.850Z,0.86
2022-12-13T02:12:29.780Z,1.03
2022-12-13T02:15:00.501Z,1.05
2022-12-13T02:17:53.953Z,1.02
2022-12-13T02:20:36.780Z,1.14
2022-12-13T02:23:03.347Z,1.24
2022-12-13T02:25:54.518Z,1.10
2022-12-13T02:28:44.018Z,1.29
2022-12-13T02:31:17.653Z,1.26
2022-12-13T02:33:58.098Z,1.11
2022-12-13T02:36:27.638Z,1.06
2022-12-13T02:39:03.507Z,1.22
2022-12-13T02:41:51.910Z,1.17
2022-12-13T02:44:26.589Z,1.10
2022-12-13T02:47:02.771Z,0.95
2022-12-13T02:49:32.684Z,0.90
2022-12-13T02:52:01.291Z,1.13
2022-12-13T02:54:27.869Z,1.14
2022-12-13T02:56:59.128Z,1.06
2022-12-13T02:59:31.750Z,1.18
2022-12-13T03:02:33.227Z,1.01
2022-12-13T03:05:31.483Z,1.22
2022-12-13T03:08:20.605Z,1.21
2022-12-13T03:10:58.283Z,1.20
2022-12-13T03:13:56.130Z,1.30
2022-12-13T03:16:44.285Z,1.14
2022-12-13T03:19:13.099Z,1.17
2022-12-13T03:21:47.398Z,1.31
2022-12-13T03:24:18.428Z,1.34
2022-12-13T03:26:45.579Z,1.40
2022-12-13T03:29:12.107Z,1.28
2022-12-13T03:31:38.880Z,1.19
2022-12-13T03:34:05.370Z,1.11
2022-12-13T03:36:32.404Z,0.99
2022-12-13T03:38:59.090Z,1.00
2022-12-13T03:41:34.026Z,1.21
2022-12-13T03:44:04.458Z,1.15
2022-12-13T03:46:31.677Z,1.35
2022-12-13T03:48:58.382Z,1.23
2022-12-13T03:51:25.009Z,1.46
2022-12-13T03:53:51.507Z,1.33
2022-12-13T03:56:18.003Z,1.23
2022-12-13T03:58:44.645Z,1.17
2022-12-13T04:01:16.547Z,1.11
2022-12-13T04:03:45.866Z,1.16
2022-12-13T04:06:13.075Z,1.20
2022-12-13T04:08:50.962Z,1.38
2022-12-13T04:11:42.705Z,1.38
2022-12-13T04:14:21.836Z,1.54
2022-12-13T04:16:50.956Z,1.66
2022-12-13T04:19:23.205Z,1.36
2022-12-13T04:21:50.904Z,1.15
2022-12-13T04:24:17.544Z,1.49
2022-12-13T04:26:44.092Z,1.79
2022-12-13T04:29:10.699Z,1.28
2022-12-13T04:31:37.220Z,1.36
2022-12-13T04:34:03.864Z,1.50
2022-12-13T04:36:32.483Z,1.44
2022-12-13T04:39:03.736Z,1.34
2022-12-13T04:41:49.894Z,1.34
2022-12-13T04:44:29.090Z,1.34
2022-12-13T04:47:00.773Z,1.45
2022-12-13T04:49:27.860Z,1.55
2022-12-13T04:52:00.427Z,1.58
2022-12-13T04:54:27.757Z,1.47
2022-12-13T04:57:03.730Z,1.59
2022-12-13T04:59:30.383Z,1.60
2022-12-13T05:01:56.949Z,1.52
2022-12-13T05:04:27.551Z,1.66
2022-12-13T05:06:57.511Z,1.67
2022-12-13T05:09:24.715Z,1.73
2022-12-13T05:11:51.205Z,1.91
2022-12-13T05:14:23.587Z,1.80
2022-12-13T05:16:50.779Z,1.87
2022-12-13T05:19:17.310Z,1.86
2022-12-13T05:21:44.113Z,1.67
2022-12-13T05:24:10.623Z,1.72
2022-12-13T05:26:37.165Z,1.62
2022-12-13T05:29:04.057Z,1.49
2022-12-13T05:31:30.617Z,1.35
2022-12-13T05:34:01.155Z,1.20
2022-12-13T05:36:28.936Z,1.20
2022-12-13T05:38:55.443Z,1.07
2022-12-13T05:41:27.113Z,1.28
2022-12-13T05:43:53.775Z,1.43
2022-12-13T05:46:20.314Z,1.32
2022-12-13T05:48:46.857Z,1.15
2022-12-13T05:51:13.475Z,1.07
2022-12-13T05:53:41.392Z,1.03
2022-12-13T05:56:09.022Z,0.98
2022-12-13T05:58:37.446Z,1.15
2022-12-13T06:01:08.769Z,1.16
2022-12-13T06:03:36.125Z,1.14
2022-12-13T06:06:04.517Z,1.10
2022-12-13T06:08:31.489Z,1.07
2022-12-13T06:11:11.657Z,0.99
2022-12-13T06:13:42.055Z,1.12
2022-12-13T06:16:21.794Z,1.17
2022-12-13T06:18:50.503Z,1.31
2022-12-13T06:21:17.592Z,1.40
2022-12-13T06:23:44.104Z,1.45
2022-12-13T06:26:10.755Z,1.30
2022-12-13T06:28:37.261Z,1.57
2022-12-13T06:31:05.024Z,1.35
2022-12-13T06:33:35.621Z,1.32
2022-12-13T06:36:03.896Z,1.22
2022-12-13T06:38:32.394Z,1.35
2022-12-13T06:41:08.505Z,1.26
2022-12-13T06:43:35.542Z,1.16
2022-12-13T06:46:05.998Z,1.25
2022-12-13T06:48:33.339Z,1.30
2022-12-13T06:51:01.799Z,1.30
2022-12-13T06:53:29.119Z,1.41
2022-12-13T06:55:56.277Z,1.38
2022-12-13T06:58:23.285Z,1.58
2022-12-13T07:00:49.815Z,1.72
2022-12-13T07:03:16.507Z,1.60
2022-12-13T07:05:43.411Z,1.53
2022-12-13T07:08:10.273Z,1.52
2022-12-13T07:10:39.024Z,1.28
2022-12-13T07:13:05.498Z,1.27
2022-12-13T07:15:33.956Z,1.45
2022-12-13T07:18:01.051Z,1.45
2022-12-13T07:20:27.555Z,1.30
2022-12-13T07:22:58.874Z,1.29
2022-12-13T07:25:28.302Z,1.20
2022-12-13T07:28:01.360Z,1.10
2022-12-13T07:30:29.524Z,1.12
2022-12-13T07:32:56.031Z,1.00
2022-12-13T07:35:22.561Z,1.00
2022-12-13T07:37:49.473Z,0.98
2022-12-13T07:40:16.046Z,0.99
2022-12-13T07:42:49.862Z,1.22
2022-12-13T07:45:16.652Z,1.14
2022-12-13T07:47:43.241Z,1.19
2022-12-13T07:50:24.316Z,1.21
2022-12-13T07:52:53.672Z,1.18
2022-12-13T07:55:23.224Z,1.08
2022-12-13T07:58:12.369Z,1.25
2022-12-13T08:00:40.605Z,1.16
2022-12-13T08:03:25.250Z,1.19
2022-12-13T08:06:03.292Z,1.29
2022-12-13T08:08:31.689Z,1.25
2022-12-13T08:11:09.550Z,1.25
2022-12-13T08:13:37.116Z,1.22
2022-12-13T08:16:26.592Z,1.19
2022-12-13T08:19:03.216Z,1.11
2022-12-13T08:21:57.350Z,1.18
2022-12-13T08:24:29.294Z,1.28
2022-12-13T08:27:01.254Z,1.14
2022-12-13T08:29:34.588Z,1.22
2022-12-13T08:32:08.130Z,1.22
2022-12-13T08:34:34.965Z,1.25
2022-12-13T08:37:03.558Z,1.23
2022-12-13T08:39:36.815Z,1.05
2022-12-13T08:42:14.956Z,1.16
2022-12-13T08:44:53.804Z,1.17
2022-12-13T08:47:23.664Z,1.27
2022-12-13T08:49:53.405Z,1.31
2022-12-13T08:52:21.766Z,1.27
2022-12-13T08:54:48.479Z,1.34
2022-12-13T08:57:15.766Z,1.10
2022-12-13T08:59:42.659Z,1.18
2022-12-13T09:02:13.692Z,1.45
2022-12-13T09:04:40.262Z,1.67
2022-12-13T09:07:07.117Z,1.73
2022-12-13T09:09:33.703Z,1.82
2022-12-13T09:12:00.312Z,1.83
2022-12-13T09:14:33.872Z,1.63
2022-12-13T09:17:03.518Z,1.65
2022-12-13T09:19:36.946Z,1.82
2022-12-13T09:22:04.836Z,1.72
2022-12-13T09:24:36.155Z,1.65
2022-12-13T09:27:09.729Z,1.83
2022-12-13T09:29:37.046Z,1.94
2022-12-13T09:32:03.958Z,2.19
2022-12-13T09:34:30.664Z,2.10
2022-12-13T09:37:01.407Z,2.04
2022-12-13T09:39:29.156Z,1.91
2022-12-13T09:42:01.027Z,2.13
2022-12-13T09:44:46.451Z,2.22
2022-12-13T09:47:24.224Z,2.39
2022-12-13T09:49:52.067Z,2.38
2022-12-13T09:52:22.655Z,2.55
2022-12-13T09:54:56.451Z,2.48
2022-12-13T09:57:32.401Z,2.45
2022-12-13T10:00:02.528Z,2.55
2022-12-13T10:02:32.169Z,2.44
2022-12-13T10:05:22.612Z,2.45
2022-12-13T10:07:52.546Z,2.56
2022-12-13T10:10:20.658Z,2.61
2022-12-13T10:12:55.842Z,2.76
2022-12-13T10:15:25.111Z,2.78
2022-12-13T10:17:54.918Z,2.81
2022-12-13T10:20:26.147Z,2.89
2022-12-13T10:23:30.015Z,2.61
2022-12-13T10:26:03.250Z,2.72
2022-12-13T10:28:33.263Z,2.70
2022-12-13T10:31:01.551Z,2.64
2022-12-13T10:33:33.396Z,2.68
2022-12-13T10:36:09.636Z,2.73
2022-12-13T10:38:41.863Z,3.08
2022-12-13T10:41:40.410Z,3.04
2022-12-13T10:44:25.508Z,3.04
2022-12-13T10:47:18.242Z,2.93
2022-12-13T10:49:59.460Z,2.94
2022-12-13T10:52:35.260Z,2.70
2022-12-13T10:55:30.532Z,3.04
2022-12-13T10:58:00.963Z,2.84
2022-12-13T11:00:45.164Z,3.10
2022-12-13T11:03:32.792Z,3.20
2022-12-13T11:06:15.469Z,3.45
2022-12-13T11:08:42.285Z,3.77
2022-12-13T11:11:10.170Z,3.77
2022-12-13T11:13:52.521Z,3.63
2022-12-13T11:16:27.450Z,3.66
2022-12-13T11:18:57.216Z,3.70
2022-12-13T11:21:30.931Z,3.45
2022-12-13T11:24:01.798Z,3.58
2022-12-13T11:26:30.906Z,3.91
2022-12-13T11:29:19.203Z,3.96
2022-12-13T11:32:13.513Z,3.82
2022-12-13T11:35:07.580Z,3.57
2022-12-13T11:38:00.425Z,4.15
2022-12-13T11:40:33.284Z,4.40
2022-12-13T11:43:07.371Z,4.56
2022-12-13T11:45:42.149Z,4.49
2022-12-13T11:48:24.288Z,4.84
2022-12-13T11:50:52.727Z,4.81
2022-12-13T11:53:19.263Z,4.75
2022-12-13T11:55:55.062Z,4.89
2022-12-13T11:59:02.277Z,5.00
2022-12-13T12:01:32.374Z,4.74
2022-12-13T12:04:19.118Z,4.71
2022-12-13T12:06:55.791Z,4.78
2022-12-13T12:09:27.277Z,4.63
2022-12-13T12:12:02.658Z,4.14
2022-12-13T12:14:41.730Z,4.42
2022-12-13T12:17:16.248Z,4.23
2022-12-13T12:19:46.825Z,4.43
2022-12-13T12:22:32.203Z,4.56
2022-12-13T12:25:15.193Z,4.78
2022-12-13T12:27:42.233Z,5.22
2022-12-13T12:30:12.146Z,5.43
2022-12-13T12:32:41.523Z,5.33
2022-12-13T12:35:26.958Z,5.09
2022-12-13T12:37:58.540Z,4.81
2022-12-13T12:41:15.093Z,4.70
2022-12-13T12:43:41.426Z,5.16
2022-12-13T12:46:52.641Z,5.12
2022-12-13T12:49:56.336Z,5.07
2022-12-13T12:52:27.543Z,5.32
2022-12-13T12:55:06.802Z,5.21
2022-12-13T12:57:47.464Z,5.13
2022-12-13T13:00:19.710Z,4.99
2022-12-13T13:03:16.061Z,4.57
2022-12-13T13:06:06.034Z,4.66
2022-12-13T13:08:55.117Z,4.52
2022-12-13T13:11:25.927Z,4.40
2022-12-13T13:14:01.417Z,4.48
2022-12-13T13:16:38.913Z,4.26
2022-12-13T13:19:11.301Z,4.39
2022-12-13T13:21:50.434Z,4.35
2022-12-13T13:24:22.935Z,4.34
2022-12-13T13:26:59.276Z,4.38
2022-12-13T13:29:28.825Z,4.45
2022-12-13T13:32:29.146Z,4.19
2022-12-13T13:35:28.817Z,4.29
2022-12-13T13:37:55.833Z,4.31
2022-12-13T13:40:30.132Z,4.43
2022-12-13T13:43:16.548Z,4.25
2022-12-13T13:45:52.115Z,4.48
2022-12-13T13:48:28.847Z,4.50
2022-12-13T13:51:33.445Z,4.37
2022-12-13T13:54:09.071Z,4.41
2022-12-13T13:56:51.222Z,4.18
2022-12-13T13:59:58.101Z,4.28
2022-12-13T14:02:58.925Z,4.28
2022-12-13T14:06:07.393Z,4.40
2022-12-13T14:08:46.159Z,4.40
2022-12-13T14:11:18.876Z,4.47
2022-12-13T14:14:22.562Z,4.62
2022-12-13T14:16:49.434Z,4.65
2022-12-13T14:19:37.941Z,4.77
2022-12-13T14:22:46.351Z,4.81
2022-12-13T14:25:40.170Z,4.38
2022-12-13T14:28:19.446Z,4.62
2022-12-13T14:30:47.844Z,4.72
2022-12-13T14:33:26.381Z,4.45
2022-12-13T14:35:57.184Z,4.51
2022-12-13T14:38:30.951Z,4.27
2022-12-13T14:41:00.786Z,4.13
2022-12-13T14:43:30.511Z,4.12
2022-12-13T14:46:02.680Z,4.22
2022-12-13T14:48:35.292Z,4.17
2022-12-13T14:51:02.080Z,4.04
2022-12-13T14:53:34.270Z,4.02
2022-12-13T14:56:09.936Z,4.13
2022-12-13T14:58:38.213Z,3.95
2022-12-13T15:01:29.378Z,3.82
2022-12-13T15:04:19.402Z,3.84
2022-12-13T15:06:48.476Z,3.76
2022-12-13T15:09:16.573Z,3.88
2022-12-13T15:11:45.438Z,3.88
2022-12-13T15:14:17.617Z,3.90
2022-12-13T15:16:49.595Z,3.63
2022-12-13T15:19:28.992Z,3.71
2022-12-13T15:22:02.357Z,3.63
2022-12-13T15:24:30.940Z,3.64
2022-12-13T15:26:59.063Z,3.72
2022-12-13T15:29:29.381Z,3.70
2022-12-13T15:31:57.420Z,3.75
2022-12-13T15:34:31.061Z,3.94
2022-12-13T15:37:29.580Z,4.00
2022-12-13T15:40:00.493Z,3.87
2022-12-13T15:42:29.793Z,4.00
2022-12-13T15:45:00.061Z,3.95
2022-12-13T15:47:28.084Z,4.15
2022-12-13T15:50:05.608Z,3.96
2022-12-13T15:52:40.396Z,4.04
2022-12-13T15:55:07.151Z,3.93
2022-12-13T15:57:50.148Z,3.93
2022-12-13T16:00:17.054Z,3.92
2022-12-13T16:02:55.254Z,3.95
2022-12-13T16:05:29.487Z,4.04
2022-12-13T16:07:58.198Z,3.90
2022-12-13T16:10:25.120Z,3.88
2022-12-13T16:13:25.632Z,3.80
2022-12-13T16:16:27.193Z,3.68
2022-12-13T16:18:59.848Z,3.79
2022-12-13T16:21:27.958Z,3.82
2022-12-13T16:23:54.855Z,3.82
2022-12-13T16:26:25.569Z,3.76
2022-12-13T16:28:58.696Z,3.55
2022-12-13T16:31:28.126Z,3.50
2022-12-13T16:33:54.709Z,3.61
2022-12-13T16:36:21.348Z,3.50
2022-12-13T16:38:48.068Z,3.37
2022-12-13T16:41:15.678Z,3.59
2022-12-13T16:44:06.893Z,3.72
2022-12-13T16:47:12.653Z,3.96
2022-12-13T16:49:21.761Z,3.71
2022-12-13T16:51:49.293Z,3.66
2022-12-13T16:54:17.161Z,3.50
2022-12-13T16:56:43.815Z,3.68
2022-12-13T16:59:15.150Z,3.78
2022-12-13T17:01:42.310Z,3.70
2022-12-13T17:04:17.875Z,3.81
2022-12-13T17:06:46.960Z,3.69
2022-12-13T17:09:13.695Z,3.59
2022-12-13T17:11:40.593Z,3.62
2022-12-13T17:14:07.132Z,3.62
2022-12-13T17:16:34.031Z,3.61
2022-12-13T17:19:00.690Z,3.66
2022-12-13T17:21:27.511Z,3.62
2022-12-13T17:23:59.575Z,3.41
2022-12-13T17:26:27.573Z,3.62
2022-12-13T17:28:54.494Z,3.66
2022-12-13T17:31:21.594Z,3.88
2022-12-13T17:33:48.271Z,3.68
2022-12-13T17:36:16.013Z,3.72
2022-12-13T17:38:47.202Z,3.71
2022-12-13T17:41:14.952Z,3.71
2022-12-13T17:43:42.526Z,3.87
2022-12-13T17:46:14.928Z,3.82
2022-12-13T17:48:42.568Z,3.74
2022-12-13T17:51:13.183Z,3.79
2022-12-13T17:53:41.144Z,3.73
2022-12-13T17:56:11.921Z,3.67
2022-12-13T17:58:38.961Z,3.79
2022-12-13T18:01:21.986Z,3.91
2022-12-13T18:03:51.261Z,3.97
2022-12-13T18:06:18.196Z,3.99
2022-12-13T18:08:45.771Z,3.93
2022-12-13T18:14:02.653Z,3.65
2022-12-13T18:16:36.199Z,3.44
2022-12-13T18:19:08.489Z,3.60
2022-12-13T18:21:35.785Z,3.72
2022-12-13T18:24:02.416Z,3.51
2022-12-13T18:26:29.295Z,3.60
2022-12-13T18:28:56.148Z,3.57
2022-12-13T18:31:24.669Z,3.57
2022-12-13T18:33:53.461Z,3.69
2022-12-13T18:36:22.830Z,3.66
2022-12-13T18:38:49.457Z,3.80
2022-12-13T18:41:19.535Z,3.74
2022-12-13T18:43:46.611Z,3.63
2022-12-13T18:46:14.806Z,3.68
2022-12-13T18:48:41.797Z,3.62
2022-12-13T18:51:09.728Z,3.70
2022-12-13T18:53:37.420Z,3.65
2022-12-13T18:56:10.421Z,3.59
2022-12-13T18:58:41.266Z,3.49
2022-12-13T19:01:09.772Z,3.58
2022-12-13T19:03:37.704Z,3.52
2022-12-13T19:06:06.284Z,3.58
2022-12-13T19:08:34.169Z,3.64
2022-12-13T19:11:02.016Z,3.66
2022-12-13T19:13:29.979Z,3.44
2022-12-13T19:15:58.989Z,3.66
2022-12-13T19:18:25.483Z,3.57
2022-12-13T19:20:54.061Z,3.51
2022-12-13T19:23:21.301Z,3.61
2022-12-13T19:25:48.583Z,3.54
2022-12-13T19:28:17.625Z,3.35
2022-12-13T19:30:46.509Z,3.29
2022-12-13T19:33:13.739Z,3.18
2022-12-13T19:35:43.064Z,3.13
2022-12-13T19:38:10.473Z,3.29
2022-12-13T19:40:41.977Z,3.26
2022-12-13T19:43:09.059Z,3.37
2022-12-13T19:45:35.806Z,3.15
2022-12-13T19:48:02.850Z,3.15
2022-12-13T19:50:30.121Z,3.15
2022-12-13T19:52:57.837Z,3.18
2022-12-13T19:55:24.517Z,3.11
2022-12-13T19:57:51.090Z,3.25
2022-12-13T20:00:17.901Z,3.11
2022-12-13T20:02:44.691Z,3.25
2022-12-13T20:05:11.378Z,3.33
2022-12-13T20:07:38.132Z,3.07
2022-12-13T20:10:05.815Z,3.13
2022-12-13T20:12:38.748Z,3.07
2022-12-13T20:15:08.113Z,3.03
2022-12-13T20:17:35.507Z,3.15
2022-12-13T20:20:02.557Z,3.20
2022-12-13T20:22:29.659Z,3.26
2022-12-13T20:24:56.179Z,3.23
2022-12-13T20:27:22.957Z,3.42
2022-12-13T20:29:50.289Z,3.28
2022-12-13T20:32:17.106Z,3.41
2022-12-13T20:34:43.706Z,3.39
2022-12-13T20:37:10.694Z,3.25
2022-12-13T20:39:37.243Z,3.49
2022-12-13T20:42:03.887Z,3.39
2022-12-13T20:44:30.627Z,3.43
2022-12-13T20:46:57.215Z,3.49
2022-12-13T20:49:23.811Z,3.43
2022-12-13T20:51:50.689Z,3.57
2022-12-13T20:54:17.205Z,3.55
2022-12-13T20:56:43.780Z,3.53
2022-12-13T20:59:12.913Z,3.60
2022-12-13T21:01:41.107Z,3.48
2022-12-13T21:04:09.103Z,3.62
2022-12-13T21:06:37.425Z,3.64
2022-12-13T21:09:04.910Z,3.64
2022-12-13T21:11:40.288Z,3.65
2022-12-13T21:14:18.563Z,3.64
2022-12-13T21:16:50.575Z,3.58
2022-12-13T21:19:19.961Z,3.73
2022-12-13T21:21:47.376Z,3.72
2022-12-13T21:24:15.989Z,3.58
2022-12-13T21:26:42.825Z,3.56
2022-12-13T21:29:11.073Z,3.37
2022-12-13T21:31:39.543Z,3.63
2022-12-13T21:34:06.811Z,3.51
2022-12-13T21:36:38.539Z,3.46
2022-12-13T21:39:16.429Z,3.59
2022-12-13T21:41:43.475Z,3.73
2022-12-13T21:44:10.953Z,3.80
2022-12-13T21:49:24.227Z,4.00
2022-12-13T21:51:50.825Z,4.06
2022-12-13T21:54:17.822Z,3.87
2022-12-13T21:57:03.331Z,3.86
2022-12-13T21:59:30.872Z,3.95
2022-12-13T22:02:12.447Z,4.32
2022-12-13T22:04:41.972Z,3.96
2022-12-13T22:07:09.574Z,4.18
2022-12-13T22:09:36.918Z,4.22
2022-12-13T22:12:17.039Z,3.81
2022-12-13T22:14:43.730Z,3.92
2022-12-13T22:17:10.233Z,3.93
2022-12-13T22:19:36.891Z,4.08
2022-12-13T22:22:03.511Z,4.03
2022-12-13T22:24:30.144Z,4.09
2022-12-13T22:26:56.841Z,4.06
2022-12-13T22:29:23.609Z,4.11
2022-12-13T22:31:50.645Z,4.10
2022-12-13T22:34:17.617Z,4.07
2022-12-13T22:36:44.882Z,4.10
2022-12-13T22:39:19.417Z,4.19
2022-12-13T22:41:47.522Z,4.26
2022-12-13T22:44:15.582Z,4.26
2022-12-13T22:46:42.848Z,4.03
2022-12-13T22:49:10.758Z,3.79
2022-12-13T22:51:38.461Z,3.74
2022-12-13T22:54:05.180Z,3.94
2022-12-13T22:56:32.772Z,3.65
2022-12-13T22:59:01.929Z,3.82
2022-12-13T23:01:30.916Z,3.82
2022-12-13T23:03:58.200Z,3.86
2022-12-13T23:06:27.909Z,4.09
2022-12-13T23:09:00.462Z,4.03
2022-12-13T23:11:46.895Z,4.05
2022-12-13T23:14:19.524Z,3.95
2022-12-13T23:16:46.146Z,3.93
2022-12-13T23:22:01.907Z,4.26
2022-12-13T23:24:28.388Z,4.15
2022-12-13T23:26:54.991Z,4.20
2022-12-13T23:29:21.644Z,3.94
2022-12-13T23:31:48.618Z,4.01
2022-12-13T23:34:16.036Z,4.22
2022-12-13T23:36:42.766Z,4.20
2022-12-13T23:39:09.348Z,3.96
2022-12-13T23:41:36.434Z,4.18
2022-12-13T23:44:04.428Z,3.88
2022-12-13T23:46:35.966Z,3.92
2022-12-13T23:49:04.805Z,3.98
2022-12-13T23:51:31.912Z,4.32
2022-12-13T23:53:58.425Z,4.15
2022-12-13T23:56:25.053Z,4.09
2022-12-13T23:58:51.988Z,4.11
